Time;durP1;ratioP1;P1;durP2;ratioP2;P2;SDS_P1;SDS_P2;PMS_P1;PMS_P2;Temp;Humidity;BMP_temperature;BMP_pressure;BME280_temperature;BME280_humidity;BME280_pressure;Samples;Min_cycle;Max_cycle;Signal;HPM_P1;HPM_P2
2023/05/08 00:01:21;;;;;;;;;;;;;;;19.77;69.25;101043.44;7397685;19;1298;-47
2023/05/08 00:03:50;;;;;;;;;;;;;;;19.85;69.09;101040.09;7397148;19;1612;-47
2023/05/08 00:06:18;;;;;;;;;;;;;;;19.88;68.96;101037.16;7396959;19;1447;-47
2023/05/08 00:08:46;;;;;;;;;;;;;;;19.93;68.46;101044.78;7396942;19;1697;-47
2023/05/08 00:11:15;;;;;;;;;;;;;;;19.75;69.05;101037.34;7397874;19;1044;-47
2023/05/08 00:13:46;;;;;;;;;;;;;;;19.84;68.75;101031.19;7395115;19;1808;-47
2023/05/08 00:16:14;;;;;;;;;;;;;;;19.84;68.87;101033.88;7395398;19;1729;-48
2023/05/08 00:18:42;;;;;;;;;;;;;;;19.83;68.89;101036.69;7394557;19;1835;-46
2023/05/08 00:21:10;;;;;;;;;;;;;;;19.76;69.11;101032.88;7396721;19;1479;-49
2023/05/08 00:23:39;;;;;;;;;;;;;;;19.86;68.62;101031.06;7397241;19;1717;-49
2023/05/08 00:26:07;;;;;;;;;;;;;;;19.90;68.69;101034.34;7396896;19;1784;-47
2023/05/08 00:28:35;;;;;;;;;;;;;;;19.93;68.54;101017.94;7397195;19;1463;-49
2023/05/08 00:31:06;;;;;;;;;;;;;;;19.86;68.56;101023.84;7397799;19;1524;-47
2023/05/08 00:33:34;;;;;;;;;;;;;;;19.95;68.39;101034.75;7394863;19;1854;-47
2023/05/08 00:36:03;;;;;;;;;;;;;;;19.88;68.39;101036.31;7395148;19;1483;-47
2023/05/08 00:38:31;;;;;;;;;;;;;;;19.91;68.74;101025.28;7395203;19;1848;-47
2023/05/08 00:41:00;;;;;;;;;;;;;;;19.85;68.48;101022.16;7396423;19;1395;-47
2023/05/08 00:43:28;;;;;;;;;;;;;;;19.90;68.31;101012.88;7396158;19;1597;-47
2023/05/08 00:45:57;;;;;;;;;;;;;;;19.91;68.40;101038.69;7395400;19;1535;-47
2023/05/08 00:48:30;;;;;;;;;;;;;;;19.81;68.56;101042.19;7395826;19;1605;-47
2023/05/08 00:50:58;;;;;;;;;;;;;;;19.88;68.27;101041.69;7395100;19;1424;-49
2023/05/08 00:53:28;;;;;;;;;;;;;;;19.86;68.53;101029.22;7395795;19;1543;-49
2023/05/08 00:55:56;;;;;;;;;;;;;;;19.84;68.86;101041.94;7395334;19;1522;-47
2023/05/08 00:58:26;;;;;;;;;;;;;;;19.83;68.82;101028.63;7394940;19;1830;-47
2023/05/08 01:00:55;;;;;;;;;;;;;;;19.82;68.79;101022.44;7396014;19;1280;-47
2023/05/08 01:03:25;;;;;;;;;;;;;;;19.88;68.53;101025.56;7395464;19;1620;-47
2023/05/08 01:05:56;;;;;;;;;;;;;;;19.76;69.08;101022.97;7395258;19;1498;-47
2023/05/08 01:08:24;;;;;;;;;;;;;;;19.77;68.93;101023.81;7394617;19;1602;-47
2023/05/08 01:10:56;;;;;;;;;;;;;;;19.86;68.48;101017.66;7397277;19;958;-49
2023/05/08 01:13:30;;;;;;;;;;;;;;;19.88;68.41;101010.31;7393167;19;1555;-47
2023/05/08 01:16:00;;;;;;;;;;;;;;;19.87;68.47;101013.97;7393948;19;1475;-47
2023/05/08 01:18:34;;;;;;;;;;;;;;;19.90;68.46;101005.66;7395115;19;1867;-48
2023/05/08 01:21:15;;;;;;;;;;;;;;;19.92;68.49;100998.31;7395782;19;1409;-47
2023/05/08 01:23:58;;;;;;;;;;;;;;;19.88;68.47;101014.84;7395937;19;1965;-47
2023/05/08 01:26:44;;;;;;;;;;;;;;;19.94;68.13;100990.13;7394980;19;1570;-48
2023/05/08 01:29:35;;;;;;;;;;;;;;;19.96;68.32;101010.47;7392796;19;1736;-48
2023/05/08 01:32:11;;;;;;;;;;;;;;;19.83;68.27;101008.00;7402241;19;1047;-47
2023/05/08 01:34:42;;;;;;;;;;;;;;;19.97;68.33;101008.63;7402213;19;1867;-47
2023/05/08 01:37:14;;;;;;;;;;;;;;;19.95;67.96;100999.88;7401626;19;1778;-47
2023/05/08 01:39:46;;;;;;;;;;;;;;;19.95;68.21;101000.72;7399574;19;1858;-47
2023/05/08 01:42:19;;;;;;;;;;;;;;;19.93;68.26;100991.09;7402696;19;1166;-47
2023/05/08 01:44:49;;;;;;;;;;;;;;;19.71;69.93;100997.50;7401707;19;1638;-47
2023/05/08 01:47:22;;;;;;;;;;;;;;;20.26;68.19;100985.41;7399181;19;1953;-48
2023/05/08 01:49:52;;;;;;;;;;;;;;;20.53;67.55;100978.53;7400495;19;1685;-48
2023/05/08 01:52:23;;;;;;;;;;;;;;;20.66;67.33;100979.09;7402918;19;1653;-48
2023/05/08 01:54:57;;;;;;;;;;;;;;;20.63;66.94;100970.47;7403044;19;1570;-48
2023/05/08 01:57:28;;;;;;;;;;;;;;;20.71;67.29;100975.16;7400342;19;1078;-48
2023/05/08 01:59:57;;;;;;;;;;;;;;;20.83;67.04;100976.69;7400721;19;1851;-48
2023/05/08 02:02:30;;;;;;;;;;;;;;;20.85;66.95;100982.81;7400914;19;1914;-48
2023/05/08 02:04:59;;;;;;;;;;;;;;;20.92;66.93;100989.28;7401340;19;1792;-48
2023/05/08 02:07:28;;;;;;;;;;;;;;;20.96;66.55;100971.88;7402057;19;1573;-48
2023/05/08 02:09:57;;;;;;;;;;;;;;;21.06;66.24;100974.56;7398710;19;1894;-48
2023/05/08 02:12:26;;;;;;;;;;;;;;;21.08;66.36;100975.25;7401253;19;1931;-48
2023/05/08 02:14:55;;;;;;;;;;;;;;;21.10;66.25;100977.81;7398222;19;1954;-47
2023/05/08 02:17:25;;;;;;;;;;;;;;;21.09;66.36;100978.78;7401526;19;1733;-47
2023/05/08 02:19:56;;;;;;;;;;;;;;;21.11;66.44;100992.94;7398834;19;1849;-48
2023/05/08 02:22:25;;;;;;;;;;;;;;;21.00;66.56;100986.72;7399673;19;1593;-48
2023/05/08 02:24:56;;;;;;;;;;;;;;;21.06;66.39;100979.94;7400605;19;1187;-47
2023/05/08 02:27:25;;;;;;;;;;;;;;;21.09;66.20;100984.16;7399897;19;1717;-48
2023/05/08 02:29:55;;;;;;;;;;;;;;;21.16;66.16;100996.91;7399452;19;1688;-48
2023/05/08 02:32:26;;;;;;;;;;;;;;;21.19;66.26;100995.78;7401965;19;982;-49
2023/05/08 02:34:58;;;;;;;;;;;;;;;21.20;65.98;100987.53;7401168;19;1570;-48
2023/05/08 02:37:27;;;;;;;;;;;;;;;21.20;66.19;100998.31;7401200;19;1842;-48
2023/05/08 02:39:58;;;;;;;;;;;;;;;21.23;66.07;100986.44;7399477;19;1898;-48
2023/05/08 02:42:27;;;;;;;;;;;;;;;21.19;65.98;101002.00;7397001;19;1847;-47
2023/05/08 02:44:55;;;;;;;;;;;;;;;21.18;66.06;101000.28;7400621;19;1523;-47
2023/05/08 02:47:27;;;;;;;;;;;;;;;21.19;66.21;101009.22;7400353;19;1464;-50
2023/05/08 02:50:01;;;;;;;;;;;;;;;21.12;66.32;101005.41;7400605;19;1926;-48
2023/05/08 02:52:30;;;;;;;;;;;;;;;21.14;66.33;101014.19;7400444;19;1751;-47
2023/05/08 02:55:02;;;;;;;;;;;;;;;21.22;66.23;101011.63;7398643;19;1940;-49
2023/05/08 02:57:35;;;;;;;;;;;;;;;21.28;66.23;101011.03;7399108;19;1534;-48
2023/05/08 03:00:06;;;;;;;;;;;;;;;21.28;66.18;101016.41;7396688;19;1853;-47
2023/05/08 03:02:37;;;;;;;;;;;;;;;21.26;66.05;101008.47;7399705;19;1249;-47
2023/05/08 03:05:10;;;;;;;;;;;;;;;21.25;66.16;101012.19;7395425;19;1868;-47
2023/05/08 03:07:40;;;;;;;;;;;;;;;21.30;65.90;101022.50;7398158;19;1547;-47
2023/05/08 03:10:12;;;;;;;;;;;;;;;21.29;65.84;101020.81;7396756;19;1120;-49
2023/05/08 03:12:42;;;;;;;;;;;;;;;21.26;66.23;101018.41;7399189;19;1680;-50
2023/05/08 03:15:13;;;;;;;;;;;;;;;21.30;65.98;101019.81;7395764;19;1280;-48
2023/05/08 03:17:44;;;;;;;;;;;;;;;21.24;66.05;101015.00;7399352;19;1123;-48
2023/05/08 03:20:18;;;;;;;;;;;;;;;21.26;66.25;101029.16;7397962;19;1871;-48
2023/05/08 03:22:48;;;;;;;;;;;;;;;21.26;66.15;101035.38;7398775;19;1943;-48
2023/05/08 03:25:18;;;;;;;;;;;;;;;21.31;65.96;101036.78;7398052;19;1236;-48
2023/05/08 03:27:47;;;;;;;;;;;;;;;21.35;65.76;101043.59;7398373;19;1483;-48
2023/05/08 03:30:16;;;;;;;;;;;;;;;21.30;66.03;101046.69;7397963;19;1972;-49
2023/05/08 03:32:46;;;;;;;;;;;;;;;21.27;66.04;101041.63;7398031;19;1273;-48
2023/05/08 03:35:18;;;;;;;;;;;;;;;21.35;65.87;101055.22;7398731;19;1263;-49
2023/05/08 03:37:46;;;;;;;;;;;;;;;21.34;65.79;101056.19;7399626;19;1569;-48
2023/05/08 03:40:15;;;;;;;;;;;;;;;21.35;65.97;101059.75;7398698;19;1857;-48
2023/05/08 03:42:43;;;;;;;;;;;;;;;21.38;65.72;101041.44;7396072;19;1724;-48
2023/05/08 03:45:12;;;;;;;;;;;;;;;21.38;65.89;101046.00;7398575;19;1377;-50
2023/05/08 03:47:44;;;;;;;;;;;;;;;21.40;65.68;101044.84;7399635;19;1046;-50
2023/05/08 03:50:13;;;;;;;;;;;;;;;21.39;65.57;101045.84;7399458;19;1053;-49
2023/05/08 03:52:44;;;;;;;;;;;;;;;21.43;65.69;101066.13;7396889;19;1916;-48
2023/05/08 03:55:12;;;;;;;;;;;;;;;21.40;65.60;101052.06;7397996;19;1871;-47
2023/05/08 03:57:44;;;;;;;;;;;;;;;21.42;65.65;101059.00;7397744;19;1875;-47
2023/05/08 04:00:15;;;;;;;;;;;;;;;21.34;65.90;101064.25;7397460;19;1867;-47
2023/05/08 04:02:48;;;;;;;;;;;;;;;21.28;65.97;101066.69;7398732;19;1471;-48
2023/05/08 04:05:22;;;;;;;;;;;;;;;21.31;65.71;101067.25;7397423;19;1590;-49
2023/05/08 04:07:55;;;;;;;;;;;;;;;21.28;65.71;101072.91;7395794;19;1847;-48
2023/05/08 04:10:26;;;;;;;;;;;;;;;21.12;65.89;101065.41;7397152;19;1488;-47
2023/05/08 04:12:58;;;;;;;;;;;;;;;21.02;66.07;101069.94;7396637;19;1622;-47
2023/05/08 04:15:28;;;;;;;;;;;;;;;20.91;66.72;101065.56;7396496;19;1365;-48
2023/05/08 04:17:59;;;;;;;;;;;;;;;20.84;66.44;101077.84;7397777;19;1396;-46
2023/05/08 04:20:28;;;;;;;;;;;;;;;20.78;66.83;101073.03;7396332;19;1858;-48
2023/05/08 04:23:00;;;;;;;;;;;;;;;20.76;66.54;101056.22;7396792;19;1720;-48
2023/05/08 04:25:28;;;;;;;;;;;;;;;20.58;67.16;101072.97;7398153;19;1886;-48
2023/05/08 04:27:57;;;;;;;;;;;;;;;20.56;67.11;101085.69;7397083;19;1933;-48
2023/05/08 04:30:26;;;;;;;;;;;;;;;20.57;67.11;101083.84;7396469;19;1843;-47
2023/05/08 04:32:55;;;;;;;;;;;;;;;20.56;67.10;101079.47;7397027;19;1540;-47
2023/05/08 04:35:23;;;;;;;;;;;;;;;20.54;67.23;101078.78;7397313;19;1384;-47
2023/05/08 04:37:54;;;;;;;;;;;;;;;20.43;67.38;101068.97;7396253;19;1458;-48
2023/05/08 04:40:25;;;;;;;;;;;;;;;20.44;67.30;101076.06;7396818;19;1856;-47
2023/05/08 04:42:54;;;;;;;;;;;;;;;20.55;67.27;101085.81;7395627;19;1242;-48
2023/05/08 04:45:22;;;;;;;;;;;;;;;20.55;67.09;101077.78;7395849;19;1602;-48
2023/05/08 04:47:50;;;;;;;;;;;;;;;20.49;67.34;101068.41;7396360;19;1514;-48
2023/05/08 04:50:19;;;;;;;;;;;;;;;20.49;67.42;101067.56;7396467;19;1296;-46
2023/05/08 04:52:47;;;;;;;;;;;;;;;20.55;67.01;101070.59;7396466;19;1941;-48
2023/05/08 04:55:15;;;;;;;;;;;;;;;20.59;67.08;101089.97;7395954;19;1447;-48
2023/05/08 04:57:46;;;;;;;;;;;;;;;20.44;67.40;101076.06;7396082;19;1609;-48
2023/05/08 05:00:15;;;;;;;;;;;;;;;20.44;67.63;101068.84;7395149;19;1859;-48
2023/05/08 05:02:43;;;;;;;;;;;;;;;20.43;67.48;101079.72;7397604;19;1241;-48
2023/05/08 05:05:12;;;;;;;;;;;;;;;20.39;67.92;101072.94;7398056;19;1843;-48
2023/05/08 05:07:40;;;;;;;;;;;;;;;20.27;68.10;101066.81;7402735;19;1519;-48
2023/05/08 05:10:09;;;;;;;;;;;;;;;20.27;68.29;101065.00;7400783;19;1733;-47
2023/05/08 05:12:37;;;;;;;;;;;;;;;20.29;68.02;101072.88;7404579;19;1690;-47
2023/05/08 05:15:09;;;;;;;;;;;;;;;20.20;68.22;101074.56;7404786;19;1590;-50
2023/05/08 05:17:37;;;;;;;;;;;;;;;20.26;68.14;101063.28;7404874;19;944;-48
2023/05/08 05:20:07;;;;;;;;;;;;;;;20.25;67.92;101060.72;7403240;19;2005;-48
2023/05/08 05:22:35;;;;;;;;;;;;;;;20.20;68.46;101053.09;7404071;19;1823;-48
2023/05/08 05:25:04;;;;;;;;;;;;;;;20.17;68.34;101074.81;7403104;19;1515;-48
2023/05/08 05:27:32;;;;;;;;;;;;;;;20.18;68.33;101065.81;7403250;19;1618;-48
2023/05/08 05:30:01;;;;;;;;;;;;;;;20.30;68.23;101063.03;7403331;19;1741;-49
2023/05/08 05:32:31;;;;;;;;;;;;;;;20.24;68.14;101067.09;7402694;19;1193;-48
2023/05/08 05:35:00;;;;;;;;;;;;;;;20.10;68.10;101062.94;7402615;19;1401;-48
2023/05/08 05:37:28;;;;;;;;;;;;;;;19.98;68.98;101069.41;6867478;19;10000302;-48
2023/05/08 05:39:56;;;;;;;;;;;;;;;19.96;68.84;101055.28;7391426;19;1852;-48
2023/05/08 05:42:25;;;;;;;;;;;;;;;20.15;68.16;101055.31;7397206;19;1622;-48
2023/05/08 05:44:53;;;;;;;;;;;;;;;20.13;68.68;101067.19;7396855;19;1484;-47
2023/05/08 05:47:21;;;;;;;;;;;;;;;20.08;68.71;101061.41;7396146;19;1484;-47
2023/05/08 05:49:52;;;;;;;;;;;;;;;20.16;68.65;101057.03;7394538;19;1545;-47
2023/05/08 05:52:20;;;;;;;;;;;;;;;20.18;68.60;101056.91;7394952;19;1491;-48
2023/05/08 05:54:49;;;;;;;;;;;;;;;20.04;68.87;101074.22;7395855;19;1583;-47
2023/05/08 05:57:17;;;;;;;;;;;;;;;20.07;68.94;101068.56;7395556;19;1721;-47
2023/05/08 05:59:45;;;;;;;;;;;;;;;20.08;68.80;101067.59;7393060;19;1864;-49
2023/05/08 06:02:17;;;;;;;;;;;;;;;20.04;69.06;101075.06;7394542;19;1449;-48
2023/05/08 06:04:45;;;;;;;;;;;;;;;20.17;68.49;101072.13;7390529;19;1471;-46
2023/05/08 06:07:16;;;;;;;;;;;;;;;20.25;68.47;101063.41;7392435;19;1383;-48
2023/05/08 06:09:44;;;;;;;;;;;;;;;20.11;68.68;101050.38;7390051;19;1603;-47
2023/05/08 06:12:13;;;;;;;;;;;;;;;20.01;69.06;101053.00;7394080;19;1466;-47
2023/05/08 06:14:41;;;;;;;;;;;;;;;19.97;69.05;101054.28;7393625;19;1586;-47
2023/05/08 06:17:09;;;;;;;;;;;;;;;20.02;68.84;101042.16;7391695;19;1384;-47
2023/05/08 06:19:37;;;;;;;;;;;;;;;20.23;68.23;101039.41;7393492;19;1593;-47
2023/05/08 06:22:06;;;;;;;;;;;;;;;20.15;68.74;101041.06;7391032;19;1896;-47
2023/05/08 06:24:37;;;;;;;;;;;;;;;19.96;69.38;101039.16;7391304;19;1409;-48
2023/05/08 06:27:05;;;;;;;;;;;;;;;19.96;69.40;101045.38;7393613;19;1482;-47
2023/05/08 06:29:34;;;;;;;;;;;;;;;19.97;69.78;101043.53;7392689;19;1397;-49
2023/05/08 06:32:02;;;;;;;;;;;;;;;19.89;69.63;101041.53;7394559;19;1581;-48
2023/05/08 06:34:30;;;;;;;;;;;;;;;19.88;69.67;101041.69;7391137;19;1841;-49
2023/05/08 06:36:59;;;;;;;;;;;;;;;20.03;69.29;101054.59;7390804;19;2323;-49
2023/05/08 06:39:27;;;;;;;;;;;;;;;20.38;68.08;101033.63;7394074;19;1732;-49
2023/05/08 06:41:58;;;;;;;;;;;;;;;20.34;68.14;101042.97;7392953;19;1890;-51
2023/05/08 06:44:26;;;;;;;;;;;;;;;20.37;68.18;101037.28;7393376;19;1491;-48
2023/05/08 06:46:54;;;;;;;;;;;;;;;20.38;68.20;101039.00;7392709;19;1333;-49
2023/05/08 06:49:23;;;;;;;;;;;;;;;20.32;68.12;101040.41;7391272;19;1492;-50
2023/05/08 06:51:51;;;;;;;;;;;;;;;20.30;68.42;101028.94;7391922;19;1461;-48
2023/05/08 06:54:19;;;;;;;;;;;;;;;20.32;68.44;101023.44;7393338;19;1281;-48
2023/05/08 06:56:48;;;;;;;;;;;;;;;20.29;68.45;101018.34;7391031;19;1821;-47
2023/05/08 06:59:18;;;;;;;;;;;;;;;20.31;68.39;101011.00;7391918;19;1724;-48
2023/05/08 07:01:47;;;;;;;;;;;;;;;20.27;68.46;101013.97;7390291;19;1842;-48
2023/05/08 07:04:15;;;;;;;;;;;;;;;20.44;68.09;101027.72;7386584;19;1558;-47
2023/05/08 07:06:43;;;;;;;;;;;;;;;20.69;67.17;101033.56;7388338;19;1387;-49
2023/05/08 07:09:12;;;;;;;;;;;;;;;20.83;66.63;101043.88;7390434;19;1570;-48
2023/05/08 07:11:40;;;;;;;;;;;;;;;20.54;67.69;101033.94;7392755;19;1384;-47
2023/05/08 07:14:09;;;;;;;;;;;;;;;20.35;68.55;101031.22;7390211;19;1808;-48
2023/05/08 07:16:40;;;;;;;;;;;;;;;20.22;68.89;101042.22;7389198;19;1605;-47
2023/05/08 07:19:08;;;;;;;;;;;;;;;20.06;69.36;101032.00;7390134;19;1489;-50
2023/05/08 07:21:37;;;;;;;;;;;;;;;20.12;69.13;101028.75;7388777;19;1872;-50
2023/05/08 07:24:06;;;;;;;;;;;;;;;20.07;68.95;101014.88;7388248;19;1819;-47
2023/05/08 07:26:34;;;;;;;;;;;;;;;20.03;69.20;101026.88;7392104;19;1784;-47
2023/05/08 07:29:02;;;;;;;;;;;;;;;20.02;69.09;101035.94;7389794;19;1498;-50
2023/05/08 07:31:30;;;;;;;;;;;;;;;20.05;69.29;101054.44;7393121;19;1661;-47
2023/05/08 07:34:01;;;;;;;;;;;;;;;20.03;68.91;101046.53;7391067;19;1520;-48
2023/05/08 07:36:30;;;;;;;;;;;;;;;20.06;68.95;101045.41;7389425;19;2142;-47
2023/05/08 07:38:58;;;;;;;;;;;;;;;20.11;68.94;101043.16;7387330;19;1831;-47
2023/05/08 07:41:27;;;;;;;;;;;;;;;20.25;68.36;101045.47;7385464;19;1847;-50
2023/05/08 07:43:55;;;;;;;;;;;;;;;20.32;68.35;101040.41;7389309;19;1455;-48
2023/05/08 07:46:24;;;;;;;;;;;;;;;20.28;68.54;101038.97;7389335;19;1583;-48
2023/05/08 07:48:52;;;;;;;;;;;;;;;20.20;68.59;101036.97;7393845;19;1486;-50
2023/05/08 07:51:23;;;;;;;;;;;;;;;20.46;68.16;101041.84;7392064;19;1530;-48
2023/05/08 07:53:53;;;;;;;;;;;;;;;20.36;68.13;101046.34;7395782;19;1546;-47
2023/05/08 07:56:22;;;;;;;;;;;;;;;20.45;68.20;101043.69;7397112;19;1472;-48
2023/05/08 07:58:50;;;;;;;;;;;;;;;20.41;68.58;101060.19;7393204;19;1471;-50
2023/05/08 08:01:18;;;;;;;;;;;;;;;20.52;67.93;101041.28;7397771;19;1869;-51
2023/05/08 08:03:47;;;;;;;;;;;;;;;20.68;67.60;101030.03;7396162;19;1386;-51
2023/05/08 08:06:17;;;;;;;;;;;;;;;20.64;68.08;101034.84;7395170;19;1562;-50
2023/05/08 08:08:48;;;;;;;;;;;;;;;20.71;68.50;101053.09;7395075;19;1500;-49
2023/05/08 08:11:16;;;;;;;;;;;;;;;20.63;68.78;101032.28;7396769;19;1225;-50
2023/05/08 08:13:44;;;;;;;;;;;;;;;20.59;69.24;101039.78;7395735;19;1559;-50
2023/05/08 08:16:13;;;;;;;;;;;;;;;20.63;69.38;101038.53;7393501;19;1272;-50
2023/05/08 08:18:41;;;;;;;;;;;;;;;20.74;69.60;101050.97;7394385;19;1443;-49
2023/05/08 08:21:09;;;;;;;;;;;;;;;20.78;69.34;101048.84;7395856;19;1853;-50
2023/05/08 08:23:38;;;;;;;;;;;;;;;20.69;70.05;101050.56;7396265;19;1384;-50
2023/05/08 08:26:09;;;;;;;;;;;;;;;20.68;70.03;101048.00;7395287;19;1613;-52
2023/05/08 08:28:38;;;;;;;;;;;;;;;20.72;70.17;101033.28;7395224;19;1089;-50
2023/05/08 08:31:06;;;;;;;;;;;;;;;20.76;70.76;101058.91;7394013;19;1632;-50
2023/05/08 08:33:34;;;;;;;;;;;;;;;20.66;72.08;101051.66;7395767;19;1253;-50
2023/05/08 08:36:03;;;;;;;;;;;;;;;20.70;71.76;101054.94;7396059;19;1305;-51
2023/05/08 08:38:31;;;;;;;;;;;;;;;20.77;71.19;101055.22;7397262;19;1008;-50
2023/05/08 08:40:59;;;;;;;;;;;;;;;20.80;71.57;101050.41;7398488;19;1859;-50
2023/05/08 08:43:30;;;;;;;;;;;;;;;20.83;71.46;101043.88;7402048;19;1854;-50
2023/05/08 08:45:59;;;;;;;;;;;;;;;20.88;71.27;101047.03;7403365;19;1607;-51
2023/05/08 08:48:29;;;;;;;;;;;;;;;20.96;70.84;101047.16;7402282;19;1847;-51
2023/05/08 08:51:00;;;;;;;;;;;;;;;20.91;71.20;101049.44;7402686;19;1623;-51
2023/05/08 08:53:32;;;;;;;;;;;;;;;20.82;71.57;101052.97;7402489;19;1454;-52
2023/05/08 08:56:02;;;;;;;;;;;;;;;20.88;71.07;101043.50;7400459;19;1309;-50
2023/05/08 08:58:37;;;;;;;;;;;;;;;20.98;70.84;101058.63;7403358;19;1523;-49
2023/05/08 09:01:07;;;;;;;;;;;;;;;21.02;70.65;101059.19;7401614;19;1841;-50
2023/05/08 09:03:35;;;;;;;;;;;;;;;21.02;70.66;101059.19;7401627;19;1389;-50
2023/05/08 09:06:04;;;;;;;;;;;;;;;20.97;70.86;101062.31;7401973;19;1451;-51
2023/05/08 09:08:32;;;;;;;;;;;;;;;20.77;71.57;101061.44;7398474;19;1592;-52
2023/05/08 09:11:03;;;;;;;;;;;;;;;20.73;71.51;101060.03;7403340;19;1036;-52
2023/05/08 09:13:34;;;;;;;;;;;;;;;20.77;71.35;101063.28;7401268;19;1546;-50
2023/05/08 09:16:02;;;;;;;;;;;;;;;20.66;71.33;101059.72;7397316;19;1566;-49
2023/05/08 09:18:30;;;;;;;;;;;;;;;20.74;70.88;101064.41;7398911;19;1368;-49
2023/05/08 09:20:59;;;;;;;;;;;;;;;20.77;70.53;101074.00;7398983;19;1852;-49
2023/05/08 09:23:27;;;;;;;;;;;;;;;20.74;70.52;101068.94;7402777;19;1724;-48
2023/05/08 09:25:55;;;;;;;;;;;;;;;20.68;70.53;101080.25;7402659;19;1466;-48
2023/05/08 09:28:24;;;;;;;;;;;;;;;20.63;70.53;101076.13;7401652;19;1329;-48
2023/05/08 09:31:00;;;;;;;;;;;;;;;20.54;70.43;101081.47;7401002;19;1202;-48
2023/05/08 09:33:29;;;;;;;;;;;;;;;20.51;69.16;101065.59;7400545;19;1681;-49
2023/05/08 09:35:58;;;;;;;;;;;;;;;20.35;70.33;101076.88;7402350;19;1847;-48
2023/05/08 09:38:36;;;;;;;;;;;;;;;20.34;69.68;101069.81;7399682;19;1522;-48
2023/05/08 09:41:09;;;;;;;;;;;;;;;20.45;69.31;101075.06;7396168;19;1841;-52
2023/05/08 09:43:37;;;;;;;;;;;;;;;20.26;68.99;101073.19;7401299;19;1487;-52
2023/05/08 09:46:25;;;;;;;;;;;;;;;20.40;68.25;101066.56;7400689;19;1637;-52
2023/05/08 09:48:54;;;;;;;;;;;;;;;20.48;68.78;101073.97;7400745;19;1315;-53
2023/05/08 09:51:22;;;;;;;;;;;;;;;20.49;68.87;101071.09;7396995;19;1589;-51
2023/05/08 09:53:52;;;;;;;;;;;;;;;20.51;68.63;101065.59;7400014;19;1446;-50
2023/05/08 09:56:30;;;;;;;;;;;;;;;20.65;68.66;101070.59;7399569;19;1514;-51
2023/05/08 09:58:59;;;;;;;;;;;;;;;20.76;68.10;101085.78;7400059;19;1217;-51
2023/05/08 10:01:33;;;;;;;;;;;;;;;20.64;68.70;101067.06;7398686;19;1854;-51
2023/05/08 10:04:01;;;;;;;;;;;;;;;20.76;68.64;101058.91;7398870;19;1516;-51
2023/05/08 10:06:30;;;;;;;;;;;;;;;20.71;68.68;101055.75;7399408;19;1555;-51
2023/05/08 10:09:13;;;;;;;;;;;;;;;20.63;68.93;101054.66;7399708;19;1155;-51
2023/05/08 10:11:41;;;;;;;;;;;;;;;20.53;69.17;101058.25;7400280;19;1557;-51
2023/05/08 10:14:10;;;;;;;;;;;;;;;20.49;69.16;101046.94;7399858;19;1381;-51
2023/05/08 10:16:43;;;;;;;;;;;;;;;20.57;69.24;101068.59;7395249;19;1538;-52
2023/05/08 10:19:14;;;;;;;;;;;;;;;20.45;69.55;101072.38;7395578;19;1470;-52
2023/05/08 10:21:43;;;;;;;;;;;;;;;20.59;69.44;101089.97;7398440;19;1857;-51
2023/05/08 10:24:15;;;;;;;;;;;;;;;20.43;69.57;101088.66;7398038;19;1179;-51
2023/05/08 10:26:44;;;;;;;;;;;;;;;20.62;68.99;101089.72;7398200;19;1416;-52
2023/05/08 10:29:17;;;;;;;;;;;;;;;20.60;68.81;101097.06;7398252;19;1150;-51
2023/05/08 10:31:48;;;;;;;;;;;;;;;20.80;68.30;101092.56;7398320;19;1507;-51
2023/05/08 10:34:20;;;;;;;;;;;;;;;20.63;69.17;101108.38;7398299;19;1396;-52
2023/05/08 10:36:51;;;;;;;;;;;;;;;20.59;69.32;101090.84;7400218;19;1698;-52
2023/05/08 10:39:20;;;;;;;;;;;;;;;20.59;69.04;101098.91;7395607;19;1573;-52
2023/05/08 10:41:50;;;;;;;;;;;;;;;20.60;69.22;101097.06;7396159;19;1849;-52
2023/05/08 10:44:19;;;;;;;;;;;;;;;20.59;68.97;101101.59;7397760;19;1381;-51
2023/05/08 10:46:53;;;;;;;;;;;;;;;20.58;68.86;101097.16;7396295;19;1402;-51
2023/05/08 10:49:25;;;;;;;;;;;;;;;20.52;69.23;101094.19;7396145;19;1491;-52
2023/05/08 10:51:59;;;;;;;;;;;;;;;20.55;68.94;101105.50;7395196;19;1593;-51
2023/05/08 10:54:32;;;;;;;;;;;;;;;20.66;68.83;101091.97;7397486;19;1392;-51
2023/05/08 10:57:09;;;;;;;;;;;;;;;20.45;69.21;101100.09;7397112;19;1537;-52
2023/05/08 10:59:38;;;;;;;;;;;;;;;20.55;68.89;101093.88;7397510;19;1455;-51
2023/05/08 11:02:09;;;;;;;;;;;;;;;20.32;69.48;101096.81;7393951;19;1853;-51
2023/05/08 11:04:38;;;;;;;;;;;;;;;20.25;69.60;101104.56;7392665;19;1265;-51
2023/05/08 11:07:06;;;;;;;;;;;;;;;20.30;69.06;101100.63;7396685;19;1385;-51
2023/05/08 11:09:47;;;;;;;;;;;;;;;20.30;68.59;101065.72;7390949;19;1530;-50
2023/05/08 11:12:23;;;;;;;;;;;;;;;20.29;68.31;101098.91;7393229;19;1107;-51
2023/05/08 11:15:01;;;;;;;;;;;;;;;20.43;68.25;101106.56;7396729;19;1571;-51
2023/05/08 11:17:31;;;;;;;;;;;;;;;20.32;69.18;101117.44;7397854;19;1905;-51
2023/05/08 11:20:02;;;;;;;;;;;;;;;20.44;68.60;101113.66;7393837;19;1196;-51
2023/05/08 11:22:31;;;;;;;;;;;;;;;20.52;68.22;101115.69;7395120;19;1838;-51
2023/05/08 11:25:04;;;;;;;;;;;;;;;20.27;69.45;101109.78;7391709;19;1613;-51
2023/05/08 11:27:33;;;;;;;;;;;;;;;20.48;68.50;101101.66;7392213;19;1462;-51
2023/05/08 11:30:16;;;;;;;;;;;;;;;20.18;69.05;101103.41;7392182;19;1954;-51
2023/05/08 11:33:01;;;;;;;;;;;;;;;20.35;68.09;101104.59;7391925;19;1514;-51
2023/05/08 11:35:59;;;;;;;;;;;;;;;20.48;68.42;101100.81;7393404;19;1272;-51
2023/05/08 11:38:31;;;;;;;;;;;;;;;20.68;67.96;101121.41;7392437;19;1875;-51
2023/05/08 11:41:01;;;;;;;;;;;;;;;20.44;68.21;101108.28;7394271;19;1403;-51
2023/05/08 11:43:53;;;;;;;;;;;;;;;20.52;68.24;101126.41;7394721;19;1849;-51
2023/05/08 11:46:22;;;;;;;;;;;;;;;20.53;68.79;101118.22;7395507;19;1685;-52
2023/05/08 11:49:00;;;;;;;;;;;;;;;20.42;69.26;101169.38;7396892;19;1582;-49
2023/05/08 11:51:32;;;;;;;;;;;;;;;20.20;69.54;101171.25;7392513;19;1368;-47
2023/05/08 11:54:00;;;;;;;;;;;;;;;19.96;65.35;101168.00;7391106;19;1353;-47
2023/05/08 11:56:29;;;;;;;;;;;;;;;19.86;63.05;101165.25;7394194;19;1601;-47
2023/05/08 11:59:03;;;;;;;;;;;;;;;19.86;63.12;101167.94;7397023;19;1721;-46
2023/05/08 12:01:32;;;;;;;;;;;;;;;19.90;64.32;101179.28;7396506;19;1329;-46
2023/05/08 12:04:07;;;;;;;;;;;;;;;19.94;64.65;101191.44;7394332;19;1882;-46
2023/05/08 12:06:36;;;;;;;;;;;;;;;19.85;67.57;101199.28;7394109;19;1462;-46
2023/05/08 12:09:06;;;;;;;;;;;;;;;20.13;65.57;101191.53;7392826;19;1392;-46
2023/05/08 12:11:35;;;;;;;;;;;;;;;20.33;64.68;101188.97;7394527;19;1554;-51
2023/05/08 12:14:03;;;;;;;;;;;;;;;20.49;64.54;101178.56;7393215;19;1544;-48
2023/05/08 12:16:31;;;;;;;;;;;;;;;20.44;65.32;101162.88;7395817;19;1851;-48
2023/05/08 12:18:59;;;;;;;;;;;;;;;20.42;65.91;101175.59;7396206;19;1463;-48
2023/05/08 12:21:30;;;;;;;;;;;;;;;20.63;65.33;101169.31;7394953;19;1989;-48
2023/05/08 12:23:59;;;;;;;;;;;;;;;20.52;66.54;101156.81;7394069;19;1845;-48
2023/05/08 12:26:27;;;;;;;;;;;;;;;20.55;66.25;101159.25;7395322;19;1463;-48
2023/05/08 12:28:56;;;;;;;;;;;;;;;20.52;66.52;101158.66;7393435;19;1254;-49
2023/05/08 12:31:25;;;;;;;;;;;;;;;20.26;67.37;101159.97;7391714;19;1419;-48
2023/05/08 12:33:54;;;;;;;;;;;;;;;20.31;67.15;101156.03;7394206;19;1452;-49
2023/05/08 12:36:22;;;;;;;;;;;;;;;20.27;67.12;101150.06;7395528;19;1593;-49
2023/05/08 12:38:53;;;;;;;;;;;;;;;20.12;67.67;101154.94;7388493;19;1545;-48
2023/05/08 12:41:25;;;;;;;;;;;;;;;20.31;66.99;101151.50;7386586;19;1243;-46
2023/05/08 12:43:53;;;;;;;;;;;;;;;20.18;67.77;101145.50;7387936;19;1914;-47
2023/05/08 12:46:21;;;;;;;;;;;;;;;19.97;68.04;101151.75;7391114;19;1229;-46
2023/05/08 12:48:49;;;;;;;;;;;;;;;20.02;67.84;101146.84;7393019;19;1740;-46
2023/05/08 12:51:18;;;;;;;;;;;;;;;20.19;67.04;101158.81;7393863;19;1480;-46
2023/05/08 12:53:47;;;;;;;;;;;;;;;20.14;67.71;101152.97;7393263;19;1426;-46
2023/05/08 12:56:23;;;;;;;;;;;;;;;19.93;68.52;101168.25;7393596;19;1494;-46
2023/05/08 12:58:52;;;;;;;;;;;;;;;19.99;67.97;101173.94;7391434;19;1337;-46
2023/05/08 13:01:20;;;;;;;;;;;;;;;19.93;68.54;101168.25;7394669;19;1376;-46
2023/05/08 13:03:54;;;;;;;;;;;;;;;19.90;68.23;101163.16;7392712;19;1854;-46